createdAt,value
2018-03-30T00:01:26.175Z,30.83
2018-03-30T00:03:53.643Z,30.80
2018-03-30T00:06:21.096Z,30.30
2018-03-30T00:08:48.551Z,30.12
2018-03-30T00:11:32.618Z,31.70
2018-03-30T00:14:00.073Z,36.65
2018-03-30T00:16:27.542Z,31.83
2018-03-30T00:18:55.006Z,33.83
2018-03-30T00:21:22.480Z,31.90
2018-03-30T00:23:49.942Z,30.35
2018-03-30T00:26:17.444Z,31.05
2018-03-30T00:28:44.924Z,32.15
2018-03-30T00:31:12.386Z,33.63
2018-03-30T00:33:39.867Z,35.38
2018-03-30T00:36:08.128Z,35.10
2018-03-30T00:38:35.635Z,35.90
2018-03-30T00:41:03.109Z,35.55
2018-03-30T00:43:30.591Z,35.05
2018-03-30T00:45:58.063Z,36.08
2018-03-30T00:48:25.601Z,38.38
2018-03-30T00:50:53.095Z,40.67
2018-03-30T00:53:32.416Z,37.30
2018-03-30T00:55:59.966Z,39.70
2018-03-30T00:58:27.451Z,35.45
2018-03-30T01:00:54.912Z,36.53
2018-03-30T01:03:22.418Z,39.00
2018-03-30T01:05:49.919Z,36.17
2018-03-30T01:08:17.422Z,37.90
2018-03-30T01:10:44.911Z,37.97
2018-03-30T01:13:12.384Z,35.25
2018-03-30T01:15:40.650Z,34.63
2018-03-30T01:18:08.142Z,34.22
2018-03-30T01:20:35.628Z,35.35
2018-03-30T01:23:03.119Z,34.50
2018-03-30T01:25:30.596Z,34.40
2018-03-30T01:27:58.136Z,34.58
2018-03-30T01:30:25.605Z,37.03
2018-03-30T01:32:53.079Z,35.58
2018-03-30T01:35:20.538Z,38.55
2018-03-30T01:37:48.034Z,37.50
2018-03-30T01:40:15.522Z,34.72
2018-03-30T01:42:43.099Z,36.15
2018-03-30T01:45:10.589Z,36.72
2018-03-30T01:47:38.085Z,37.15
2018-03-30T01:50:05.575Z,36.58
2018-03-30T01:52:33.827Z,34.55
2018-03-30T01:55:01.328Z,37.40
2018-03-30T01:57:28.801Z,32.70
2018-03-30T01:59:56.295Z,37.95
2018-03-30T02:02:24.550Z,36.97
2018-03-30T02:04:52.033Z,37.50
2018-03-30T02:07:20.292Z,35.35
2018-03-30T02:09:47.821Z,36.38
2018-03-30T02:12:15.331Z,36.90
2018-03-30T02:14:43.602Z,35.72
2018-03-30T02:17:11.078Z,36.58
2018-03-30T02:19:39.336Z,36.03
2018-03-30T02:22:06.806Z,39.10
2018-03-30T02:24:35.113Z,38.08
2018-03-30T02:27:03.323Z,37.50
2018-03-30T02:29:30.800Z,35.90
2018-03-30T02:31:58.277Z,35.25
2018-03-30T02:34:25.770Z,37.13
2018-03-30T02:36:53.297Z,35.40
2018-03-30T02:39:21.563Z,37.67
2018-03-30T02:41:49.821Z,37.45
2018-03-30T02:44:17.323Z,36.63
2018-03-30T02:46:44.839Z,40.15
2018-03-30T02:49:12.304Z,36.70
2018-03-30T02:51:39.808Z,35.05
2018-03-30T02:54:07.272Z,34.45
2018-03-30T02:56:34.747Z,37.05
2018-03-30T02:59:02.203Z,36.25
2018-03-30T03:01:29.699Z,37.17
2018-03-30T03:03:57.964Z,35.72
2018-03-30T03:06:25.426Z,34.70
2018-03-30T03:08:52.939Z,36.88
2018-03-30T03:11:20.431Z,37.10
2018-03-30T03:13:47.894Z,35.50
2018-03-30T03:16:15.425Z,38.47
2018-03-30T03:18:42.898Z,36.75
2018-03-30T03:21:10.367Z,35.72
2018-03-30T03:23:38.635Z,35.35
2018-03-30T03:26:06.123Z,34.15
2018-03-30T03:28:33.635Z,32.85
2018-03-30T03:31:01.134Z,32.38
2018-03-30T03:33:28.632Z,33.58
2018-03-30T03:35:56.122Z,33.63
2018-03-30T03:38:24.401Z,33.10
2018-03-30T03:40:51.886Z,33.30
2018-03-30T03:43:19.398Z,32.53
2018-03-30T03:45:46.903Z,31.70
2018-03-30T03:48:14.394Z,34.13
2018-03-30T03:50:41.895Z,32.20
2018-03-30T03:53:09.397Z,31.65
2018-03-30T03:55:36.870Z,31.25
2018-03-30T03:58:04.377Z,28.52
2018-03-30T04:00:32.626Z,31.62
2018-03-30T04:03:00.107Z,35.53
2018-03-30T04:05:28.398Z,31.67
2018-03-30T04:07:55.902Z,30.48
2018-03-30T04:10:23.490Z,29.33
2018-03-30T04:12:51.002Z,30.40
2018-03-30T04:15:18.492Z,32.33
2018-03-30T04:17:45.978Z,28.35
2018-03-30T04:20:13.454Z,29.55
2018-03-30T04:22:40.962Z,29.15
2018-03-30T04:25:08.433Z,27.27
2018-03-30T04:27:35.906Z,27.92
2018-03-30T04:30:03.497Z,27.67
2018-03-30T04:32:30.998Z,26.92
2018-03-30T04:34:58.483Z,29.30
2018-03-30T04:37:28.147Z,28.98
2018-03-30T04:39:55.901Z,27.73
2018-03-30T04:42:23.402Z,27.67
2018-03-30T04:44:50.914Z,27.77
2018-03-30T04:47:18.413Z,25.12
2018-03-30T04:49:46.662Z,25.23
2018-03-30T04:52:14.203Z,26.42
2018-03-30T04:54:41.721Z,27.65
2018-03-30T04:57:09.188Z,27.33
2018-03-30T04:59:36.754Z,26.58
2018-03-30T05:02:04.285Z,27.25
2018-03-30T05:04:32.572Z,26.37
2018-03-30T05:07:00.117Z,25.75
2018-03-30T05:09:27.664Z,26.52
2018-03-30T05:11:55.127Z,26.73
2018-03-30T05:14:22.661Z,27.00
2018-03-30T05:16:50.111Z,28.75
2018-03-30T05:19:17.594Z,30.00
2018-03-30T05:21:45.096Z,29.95
2018-03-30T05:24:12.642Z,27.00
2018-03-30T05:26:40.400Z,27.37
2018-03-30T05:29:07.929Z,25.92
2018-03-30T05:31:35.422Z,26.50
2018-03-30T05:34:02.966Z,26.62
2018-03-30T05:36:31.252Z,25.75
2018-03-30T05:38:58.753Z,27.13
2018-03-30T05:41:26.242Z,29.37
2018-03-30T05:43:53.705Z,28.77
2018-03-30T05:46:21.178Z,26.52
2018-03-30T05:48:51.814Z,26.55
2018-03-30T05:51:19.307Z,29.05
2018-03-30T05:53:47.006Z,28.30
2018-03-30T05:56:15.678Z,28.33
2018-03-30T05:58:43.343Z,27.60
2018-03-30T06:01:26.701Z,26.50
2018-03-30T06:03:55.258Z,25.27
2018-03-30T06:06:22.739Z,24.95
2018-03-30T06:08:52.899Z,26.87
2018-03-30T06:11:20.456Z,26.27
2018-03-30T06:13:47.935Z,25.50
2018-03-30T06:16:15.415Z,29.67
2018-03-30T06:18:42.890Z,26.85
2018-03-30T06:21:11.141Z,26.55
2018-03-30T06:23:38.638Z,25.27
2018-03-30T06:26:06.132Z,26.65
2018-03-30T06:28:33.609Z,27.58
2018-03-30T06:31:01.090Z,24.75
2018-03-30T06:33:29.404Z,26.58
2018-03-30T06:35:56.919Z,27.00
2018-03-30T06:38:24.385Z,24.60
2018-03-30T06:40:51.889Z,26.35
2018-03-30T06:43:19.389Z,24.35
2018-03-30T06:45:47.666Z,24.95
2018-03-30T06:48:15.133Z,24.42
2018-03-30T06:50:43.397Z,24.92
2018-03-30T06:53:10.873Z,24.20
2018-03-30T06:55:39.133Z,24.35
2018-03-30T06:58:07.416Z,24.95
2018-03-30T07:00:35.646Z,24.17
2018-03-30T07:03:03.143Z,23.40
2018-03-30T07:05:30.663Z,21.05
2018-03-30T07:07:59.157Z,22.33
2018-03-30T07:10:26.663Z,22.85
2018-03-30T07:12:54.199Z,24.25
2018-03-30T07:15:21.781Z,20.17
2018-03-30T07:17:49.269Z,21.65
2018-03-30T07:20:16.782Z,21.23
2018-03-30T07:22:45.171Z,21.45
2018-03-30T07:25:12.685Z,19.33
2018-03-30T07:27:40.183Z,19.73
2018-03-30T07:30:07.705Z,19.75
2018-03-30T07:32:35.194Z,19.35
2018-03-30T07:35:02.771Z,19.20
2018-03-30T07:37:30.333Z,19.12
2018-03-30T07:39:57.887Z,16.73
2018-03-30T07:42:25.477Z,16.87
2018-03-30T07:44:52.978Z,15.27
2018-03-30T07:47:20.503Z,17.33
2018-03-30T07:49:48.023Z,15.35
2018-03-30T07:52:15.528Z,16.65
2018-03-30T07:54:43.025Z,16.30
2018-03-30T07:57:10.555Z,17.73
2018-03-30T07:59:38.102Z,16.65
2018-03-30T08:02:05.769Z,18.17
2018-03-30T08:04:33.513Z,16.10
2018-03-30T08:07:01.000Z,14.13
2018-03-30T08:09:28.517Z,15.35
2018-03-30T08:11:56.011Z,15.07
2018-03-30T08:14:23.612Z,15.45
2018-03-30T08:16:51.106Z,15.50
2018-03-30T08:19:18.691Z,17.55
2018-03-30T08:21:46.260Z,15.75
2018-03-30T08:24:13.932Z,14.63
2018-03-30T08:26:41.422Z,15.35
2018-03-30T08:29:09.045Z,15.07
2018-03-30T08:31:37.426Z,16.83
2018-03-30T08:34:05.312Z,14.80
2018-03-30T08:36:32.833Z,17.50
2018-03-30T08:39:00.314Z,17.42
2018-03-30T08:41:28.324Z,16.17
2018-03-30T08:43:55.843Z,15.35
2018-03-30T08:46:24.092Z,15.68
2018-03-30T08:48:51.585Z,14.65
2018-03-30T08:51:19.138Z,15.25
2018-03-30T08:53:46.649Z,13.77
2018-03-30T08:56:14.270Z,16.90
2018-03-30T08:58:41.762Z,15.18
2018-03-30T09:01:10.272Z,15.32
2018-03-30T09:03:37.753Z,15.65
2018-03-30T09:06:05.239Z,14.57
2018-03-30T09:08:32.805Z,14.43
2018-03-30T09:11:00.380Z,14.63
2018-03-30T09:13:27.890Z,13.00
2018-03-30T09:15:55.411Z,14.43
2018-03-30T09:18:23.722Z,15.25
2018-03-30T09:20:51.255Z,13.70
2018-03-30T09:23:18.745Z,15.43
2018-03-30T09:25:46.268Z,13.98
2018-03-30T09:28:13.835Z,14.23
2018-03-30T09:30:41.397Z,12.77
2018-03-30T09:33:15.218Z,13.23
2018-03-30T09:35:42.696Z,13.38
2018-03-30T09:38:10.201Z,11.73
2018-03-30T09:40:37.720Z,11.85
2018-03-30T09:43:05.247Z,12.23
2018-03-30T09:45:32.748Z,10.65
2018-03-30T09:48:00.237Z,11.18
2018-03-30T09:50:27.724Z,11.60
2018-03-30T09:52:56.023Z,11.30
2018-03-30T09:55:23.538Z,12.40
2018-03-30T09:57:51.054Z,10.50
2018-03-30T10:00:21.278Z,11.50
2018-03-30T10:02:48.738Z,10.35
2018-03-30T10:05:16.241Z,10.70
2018-03-30T10:07:43.719Z,11.05
2018-03-30T10:10:11.228Z,10.10
2018-03-30T10:12:38.734Z,9.65
2018-03-30T10:15:06.774Z,9.93
2018-03-30T10:20:24.733Z,11.20
2018-03-30T10:22:53.106Z,10.23
2018-03-30T10:25:20.567Z,9.90
2018-03-30T10:27:48.059Z,10.32
2018-03-30T10:30:15.616Z,10.90
2018-03-30T10:32:43.116Z,9.80
2018-03-30T10:35:10.695Z,11.02
2018-03-30T10:40:29.481Z,10.77
2018-03-30T10:42:56.947Z,10.50
2018-03-30T10:48:15.704Z,10.10
2018-03-30T10:50:43.224Z,10.98
2018-03-30T10:53:11.558Z,11.50
2018-03-30T10:55:39.066Z,10.88
2018-03-30T10:58:06.589Z,11.18
2018-03-30T11:00:34.103Z,10.95
2018-03-30T11:03:01.578Z,11.20
2018-03-30T11:05:29.900Z,9.98
2018-03-30T11:07:57.448Z,10.68
2018-03-30T11:10:25.019Z,10.82
2018-03-30T11:12:52.573Z,10.55
2018-03-30T11:15:20.247Z,11.68
2018-03-30T11:17:47.760Z,10.88
2018-03-30T11:20:15.992Z,10.77
2018-03-30T11:22:44.673Z,11.15
2018-03-30T11:25:12.199Z,10.50
2018-03-30T11:27:39.757Z,10.80
2018-03-30T11:30:07.588Z,10.48
2018-03-30T11:32:35.979Z,10.90
2018-03-30T11:35:03.610Z,12.23
2018-03-30T11:37:32.321Z,10.13
2018-03-30T11:39:59.931Z,11.00
2018-03-30T11:42:27.604Z,11.18
2018-03-30T11:44:55.245Z,11.70
2018-03-30T11:47:22.810Z,12.43
2018-03-30T11:49:54.342Z,11.30
2018-03-30T11:52:23.055Z,10.60
2018-03-30T11:54:51.552Z,10.63
2018-03-30T11:57:21.240Z,10.05
2018-03-30T12:02:52.265Z,10.43
2018-03-30T12:05:20.515Z,11.40
2018-03-30T12:07:48.444Z,12.32
2018-03-30T12:10:16.107Z,9.88
2018-03-30T12:12:46.701Z,11.40
2018-03-30T12:15:15.131Z,10.60
2018-03-30T12:17:42.595Z,11.88
2018-03-30T12:22:59.778Z,11.32
2018-03-30T12:25:27.492Z,13.35
2018-03-30T12:27:55.116Z,11.48
2018-03-30T12:30:28.792Z,11.80
2018-03-30T13:29:29.356Z,11.95
2018-03-30T13:31:56.846Z,10.43
2018-03-30T13:34:24.794Z,11.38
2018-03-30T13:36:52.376Z,11.05
2018-03-30T13:39:21.375Z,11.68
2018-03-30T13:41:50.788Z,12.60
2018-03-30T13:44:18.322Z,13.48
2018-03-30T13:46:48.030Z,11.15
2018-03-30T13:49:17.123Z,10.65
2018-03-30T13:51:48.378Z,11.05
2018-03-30T13:54:16.710Z,11.57
2018-03-30T13:56:54.517Z,12.93
2018-03-30T13:59:23.765Z,12.43
2018-03-30T14:05:02.168Z,12.48
2018-03-30T14:08:06.881Z,12.40
2018-03-30T14:10:47.944Z,10.65
2018-03-30T14:13:15.408Z,11.88
2018-03-30T14:15:47.282Z,11.60
2018-03-30T14:18:29.930Z,11.02
2018-03-30T14:21:05.766Z,9.82
2018-03-30T14:23:52.764Z,11.15
2018-03-30T14:26:29.666Z,11.15
2018-03-30T14:29:02.146Z,10.90
2018-03-30T14:31:47.359Z,11.10
2018-03-30T14:34:14.887Z,11.82
2018-03-30T14:36:45.852Z,11.10
2018-03-30T14:39:19.997Z,11.18
2018-03-30T14:41:47.586Z,9.45
2018-03-30T14:44:18.716Z,10.02
2018-03-30T14:46:48.054Z,9.90
2018-03-30T14:49:16.362Z,9.30
2018-03-30T14:51:44.746Z,10.80
2018-03-30T14:54:15.622Z,9.65
2018-03-30T14:56:50.510Z,10.90
2018-03-30T14:59:19.764Z,10.45
2018-03-30T15:02:08.295Z,10.57
2018-03-30T15:04:51.920Z,10.18
2018-03-30T15:07:25.290Z,10.90
2018-03-30T15:10:00.493Z,11.52
2018-03-30T15:12:31.984Z,9.85
2018-03-30T15:15:00.405Z,10.20
2018-03-30T15:17:36.175Z,10.48
2018-03-30T15:20:05.160Z,10.00
2018-03-30T15:22:34.276Z,10.73
2018-03-30T15:25:17.777Z,10.43
2018-03-30T15:27:46.770Z,10.27
2018-03-30T15:33:34.706Z,10.20
2018-03-30T15:36:04.596Z,10.65
2018-03-30T15:38:32.063Z,10.40
2018-03-30T15:40:59.563Z,11.20
2018-03-30T15:43:30.683Z,10.35
2018-03-30T15:46:00.828Z,10.98
2018-03-30T15:48:28.300Z,10.73
2018-03-30T15:51:02.562Z,10.07
2018-03-30T15:53:29.580Z,10.00
2018-03-30T15:55:57.046Z,9.45
2018-03-30T15:58:24.504Z,8.65
2018-03-30T16:00:52.339Z,10.65
2018-03-30T16:03:19.885Z,10.65
2018-03-30T16:05:47.456Z,10.10
2018-03-30T16:08:14.988Z,10.10
2018-03-30T16:10:46.305Z,9.55
2018-03-30T16:13:13.798Z,9.48
2018-03-30T16:15:42.084Z,10.45
2018-03-30T16:18:09.648Z,10.52
2018-03-30T16:20:36.707Z,10.10
2018-03-30T16:23:03.702Z,10.30
2018-03-30T16:25:31.068Z,10.30
2018-03-30T16:27:58.064Z,9.52
2018-03-30T16:30:25.104Z,8.27
2018-03-30T16:32:52.168Z,9.43
2018-03-30T16:35:19.398Z,10.18
2018-03-30T16:37:48.482Z,8.70
2018-03-30T16:40:17.054Z,9.35
2018-03-30T16:42:44.184Z,9.13
2018-03-30T16:45:13.295Z,9.05
2018-03-30T16:47:40.406Z,9.35
2018-03-30T16:50:07.547Z,9.68
2018-03-30T16:52:34.644Z,8.55
2018-03-30T16:55:02.461Z,10.05
2018-03-30T16:57:29.535Z,8.18
2018-03-30T16:59:56.527Z,9.00
2018-03-30T17:02:23.546Z,8.82
2018-03-30T17:04:50.581Z,10.75
2018-03-30T17:07:18.472Z,9.60
2018-03-30T17:09:45.772Z,9.75
2018-03-30T17:12:12.862Z,9.55
2018-03-30T17:14:40.699Z,9.63
2018-03-30T17:17:07.748Z,9.40
2018-03-30T17:19:34.766Z,9.15
2018-03-30T17:22:02.661Z,10.30
2018-03-30T17:24:29.706Z,10.15
2018-03-30T17:26:56.790Z,9.45
2018-03-30T17:29:23.822Z,9.88
2018-03-30T17:31:53.183Z,9.32
2018-03-30T17:52:20.192Z,10.75
2018-03-30T17:54:47.265Z,14.02
2018-03-30T17:57:14.295Z,14.18
2018-03-30T17:59:41.392Z,15.98
2018-03-30T18:04:45.411Z,13.48
2018-03-30T18:07:12.464Z,13.55
2018-03-30T18:09:39.526Z,14.55
2018-03-30T18:12:07.744Z,13.95
2018-03-30T18:14:34.758Z,14.05
2018-03-30T18:17:01.770Z,15.38
2018-03-30T18:19:28.758Z,13.82
2018-03-30T18:21:55.821Z,14.80
2018-03-30T18:24:22.840Z,14.30
2018-03-30T18:26:49.940Z,14.98
2018-03-30T18:29:16.991Z,14.65
2018-03-30T18:31:44.015Z,14.45
2018-03-30T18:34:11.200Z,14.35
2018-03-30T18:36:38.203Z,16.17
2018-03-30T18:39:05.223Z,14.98
2018-03-30T18:41:32.369Z,15.88
2018-03-30T18:43:59.365Z,14.43
2018-03-30T18:46:26.518Z,15.77
2018-03-30T18:48:53.549Z,15.85
2018-03-30T18:51:21.280Z,16.52
2018-03-30T18:53:48.302Z,16.33
2018-03-30T18:56:15.323Z,15.82
2018-03-30T18:58:42.545Z,16.45
2018-03-30T19:01:10.401Z,17.58
2018-03-30T19:03:37.899Z,16.02
2018-03-30T19:06:04.936Z,15.82
2018-03-30T19:08:32.018Z,17.12
2018-03-30T19:11:02.225Z,17.23
2018-03-30T19:13:29.250Z,19.05
2018-03-30T19:15:56.283Z,17.80
2018-03-30T19:18:23.260Z,16.55
2018-03-30T19:20:50.403Z,19.48
2018-03-30T19:23:18.370Z,16.27
2018-03-30T19:25:45.376Z,16.80
2018-03-30T19:28:12.359Z,16.12
2018-03-30T19:30:39.430Z,15.88
2018-03-30T19:33:06.450Z,16.05
2018-03-30T19:35:33.443Z,18.02
2018-03-30T19:38:01.499Z,18.08
2018-03-30T19:40:28.472Z,14.82
2018-03-30T19:42:55.483Z,17.02
2018-03-30T19:45:22.474Z,16.00
2018-03-30T19:47:49.477Z,17.60
2018-03-30T19:50:16.547Z,16.48
2018-03-30T19:52:43.574Z,16.50
2018-03-30T19:55:11.765Z,15.95
2018-03-30T19:57:38.756Z,15.48
2018-03-30T20:00:06.538Z,15.70
2018-03-30T20:02:33.559Z,17.42
2018-03-30T20:05:00.558Z,16.48
2018-03-30T20:07:28.752Z,14.70
2018-03-30T20:09:56.534Z,15.25
2018-03-30T20:12:23.539Z,15.18
2018-03-30T20:14:57.657Z,15.48
2018-03-30T20:17:25.463Z,15.15
2018-03-30T20:19:52.597Z,16.15
2018-03-30T20:22:20.418Z,15.75
2018-03-30T20:24:49.607Z,16.75
2018-03-30T20:27:16.725Z,15.68
2018-03-30T20:29:45.587Z,15.90
2018-03-30T20:32:12.715Z,15.40
2018-03-30T20:34:39.880Z,16.42
2018-03-30T20:37:06.879Z,16.55
2018-03-30T20:39:33.889Z,16.05
2018-03-30T20:42:00.876Z,16.27
2018-03-30T20:44:27.930Z,14.68
2018-03-30T20:46:54.980Z,16.00
2018-03-30T20:49:21.973Z,14.95
2018-03-30T20:51:49.029Z,14.98
2018-03-30T20:54:16.008Z,15.02
2018-03-30T20:56:43.084Z,15.02
2018-03-30T20:59:10.142Z,16.33
2018-03-30T21:01:37.145Z,16.25
2018-03-30T21:04:04.946Z,13.50
2018-03-30T21:06:31.932Z,14.65
2018-03-30T21:08:58.963Z,14.68
2018-03-30T21:11:25.977Z,13.98
2018-03-30T21:13:52.965Z,13.65
2018-03-30T21:16:19.986Z,13.48
2018-03-30T21:18:46.971Z,15.65
2018-03-30T21:21:16.689Z,14.65
2018-03-30T21:23:43.682Z,14.80
2018-03-30T21:26:10.665Z,14.65
2018-03-30T21:28:37.663Z,13.95
2018-03-30T21:31:04.659Z,13.75
2018-03-30T21:33:31.656Z,14.73
2018-03-30T21:35:58.759Z,14.38
2018-03-30T21:38:26.718Z,14.27
2018-03-30T21:40:53.742Z,14.27
2018-03-30T21:43:21.035Z,14.20
2018-03-30T21:45:48.080Z,14.32
2018-03-30T21:48:15.070Z,14.43
2018-03-30T21:50:42.071Z,13.10
2018-03-30T21:53:09.905Z,13.43
2018-03-30T21:55:36.949Z,12.32
2018-03-30T21:58:03.942Z,14.15
2018-03-30T22:00:30.950Z,13.98
2018-03-30T22:02:57.918Z,13.65
2018-03-30T22:05:25.663Z,12.45
2018-03-30T22:08:04.282Z,13.57
2018-03-30T22:10:31.649Z,13.88
2018-03-30T22:12:58.664Z,13.32
2018-03-30T22:15:25.658Z,12.98
2018-03-30T22:17:52.942Z,14.23
2018-03-30T22:20:20.149Z,14.18
2018-03-30T22:22:47.189Z,13.07
2018-03-30T22:25:14.236Z,14.82
2018-03-30T22:27:42.014Z,13.48
2018-03-30T22:30:09.047Z,14.38
2018-03-30T22:32:36.073Z,13.40
2018-03-30T22:35:03.202Z,13.10
2018-03-30T22:37:30.200Z,14.10
2018-03-30T22:39:57.309Z,13.85
2018-03-30T22:42:24.302Z,14.80
2018-03-30T22:44:51.321Z,15.07
2018-03-30T22:47:18.381Z,15.68
2018-03-30T22:49:45.316Z,14.30
2018-03-30T22:52:12.363Z,13.73
2018-03-30T22:54:39.422Z,14.93
2018-03-30T22:57:06.425Z,14.75
2018-03-30T22:59:33.449Z,13.88
2018-03-30T23:02:00.414Z,13.57
2018-03-30T23:04:27.406Z,15.00
2018-03-30T23:06:55.164Z,14.43
2018-03-30T23:09:22.186Z,13.90
2018-03-30T23:11:49.226Z,14.02
2018-03-30T23:14:17.040Z,15.10
2018-03-30T23:16:44.091Z,14.23
2018-03-30T23:19:11.115Z,15.15
2018-03-30T23:21:38.120Z,13.98
2018-03-30T23:24:05.108Z,14.65
2018-03-30T23:26:32.170Z,15.40
2018-03-30T23:28:59.178Z,15.00
2018-03-30T23:31:26.190Z,14.40
2018-03-30T23:33:53.203Z,14.65
2018-03-30T23:36:20.215Z,14.07
2018-03-30T23:38:47.192Z,14.70
2018-03-30T23:41:14.207Z,13.40
2018-03-30T23:43:41.214Z,13.85
2018-03-30T23:46:08.221Z,15.25
2018-03-30T23:48:35.247Z,13.55
2018-03-30T23:51:02.242Z,13.73
2018-03-30T23:53:29.263Z,11.60
2018-03-30T23:55:56.271Z,12.95
2018-03-30T23:58:36.509Z,13.40
